Detalii statie TRANSAVIA GRUP [00001CF7]

Toti senzorii

Date Temperatura solului [C]Precipitatii [mm]Voltaj baterie [mV]HC Air temperature [C]HC Relative humidity [%]Punctul de roua [C]
medieminmaxsumaultimamedieminmaxmediemediemin
2018-10-13 16:00:00 11.3 11.2 11.6 0 7274 20.95 20.72 21.24 42.21 7.4 7.1
2018-10-13 17:00:00 11.6 11.5 11.9 0 6982 20.16 19.44 20.7 45.37 7.8 7.7
2018-10-13 18:00:00 11.7 11.7 11.8 0 6952 17.42 14.64 19.09 52.88 7.4 6.6
2018-10-13 19:00:00 11.7 11.7 11.8 0 6942 13.19 10.85 15.02 67.24 7 6
2018-10-13 20:00:00 11.7 11.6 11.9 0 6914 9.51 8.15 10.57 84.45 6.8 6.3
2018-10-13 21:00:00 11.6 11.5 11.8 0 6904 7.03 6.35 8.21 92.99 5.8 5.4
2018-10-13 22:00:00 11.4 11.3 11.7 0 6884 6.02 5.49 7.02 96.45 5.4 5
2018-10-13 23:00:00 11.3 11.2 11.5 0 6884 5.55 4.95 6.13 99.61 5.4 4.6
2018-10-14 00:00:00 11.2 11.1 11.3 0 6874 4.85 4.25 5.84 99.9 4.7 4.2
2018-10-14 01:00:00 11 10.9 11.2 0 6864 3.92 3.18 5.04 100 3.8 3.1
2018-10-14 02:00:00 10.9 10.8 11 0 6844 3.19 2.75 3.61 100 3.1 2.7
2018-10-14 03:00:00 10.7 10.6 10.8 0 6834 3.05 2.4 3.55 100 3 2.4
2018-10-14 04:00:00 10.5 10.3 10.7 0 6826 1.96 1.07 3.14 100 1.9 1
2018-10-14 05:00:00 10.3 10.3 10.5 0 6816 1.04 0.25 1.7 100 0.9 0.2
2018-10-14 06:00:00 10.2 10.1 10.4 0 6796 0.05 -0.63 0.67 100 0 -0.5
2018-10-14 07:00:00 10 9.9 10.1 0 6786 -0.44 -1.08 0.18 100 -0.3 -0.9
2018-10-14 08:00:00 9.9 9.7 10 0 6854 0.69 -0.42 2.64 100 0.7 -0.3
2018-10-14 09:00:00 9.8 9.7 9.9 0 7324 5.79 2.83 8.7 99.72 5.7 2.8
2018-10-14 10:00:00 9.7 9.6 9.8 0 7324 11.7 9.48 13.04 67.3 5.4 4.1
2018-10-14 11:00:00 9.7 9.7 9.9 0 7314 14.85 13.63 16.47 50.58 4.4 4.2
2018-10-14 12:00:00 9.8 9.8 10.1 0 7314 17.13 16.69 17.59 44.93 4.8 4.1
2018-10-14 13:00:00 10 9.9 10.2 0 7314 18.57 17.39 19.44 38.16 3.7 2.8
2018-10-14 14:00:00 10.3 10.2 10.5 0 7314 20.05 19.36 20.84 31.62 2.4 1.4
2018-10-14 15:00:00 10.6 10.5 10.8 0 7314 21.23 20.58 22.08 27.91 1.6 1.4
2018-10-14 16:00:00 10.9 10.8 11.2 0 7070 22.09 21.47 22.44 23.51 0.1 -0.3
2018-10-14 17:00:00 11.1 11 11.3 0 6982 20.72 19.93 21.5 24.19 -0.6 -1.7
2018-10-14 18:00:00 11.3 11.3 11.3 0 6942 16.99 14.14 19.75 30.24 -0.8 -1.7
2018-10-14 19:00:00 11.2 11.1 11.3 0 6932 10.59 8.52 14.32 49.96 0.3 -0.3
2018-10-14 20:00:00 11.1 11 11.3 0 6904 7.5 6.22 9.31 62.4 0.6 0.3
2018-10-14 21:00:00 11 10.9 11.2 0 6894 5.83 4.85 6.58 69.68 0.5 0
2018-10-14 22:00:00 10.8 10.7 11 0 6884 4.17 2.78 6.29 76.01 0.2 -0.5
2018-10-14 23:00:00 10.7 10.6 10.9 0 6874 2.57 1.55 3.59 84.16 0.1 -0.6
2018-10-15 00:00:00 10.5 10.4 10.7 0 6854 1.24 0.21 2.46 90.06 -0.2 -1.1
2018-10-15 01:00:00 10.3 10.2 10.4 0 6844 0.02 -0.73 0.88 92.93 -0.9 -1.4
2018-10-15 02:00:00 10.1 9.9 10.3 0 6834 -0.62 -1.15 0.4 95.72 -1.1 -1.8
2018-10-15 03:00:00 9.9 9.8 10.1 0 6826 -1.23 -1.78 -0.65 96.69 -1.6 -2.3
2018-10-15 04:00:00 9.7 9.7 9.9 0 6806 -1.52 -2.54 -0.91 98.03 -1.7 -2.8
2018-10-15 05:00:00 9.5 9.4 9.7 0 6786 -2.3 -2.83 -1.59 99.1 -2.3 -2.8
2018-10-15 06:00:00 9.4 9.3 9.6 0 6796 -2.69 -2.99 -2.25 99.85 -2.6 -2.9
2018-10-15 07:00:00 9.1 9.1 9.3 0 6776 -3.11 -3.49 -2.48 99.48 -3 -3.6
2018-10-15 08:00:00 9 8.9 9.3 0 6826 -1.87 -2.75 0.06 100 -1.7 -2.6
2018-10-15 09:00:00 8.9 8.7 9.1 0 7324 3.93 0.25 7.25 89.89 2.1 0.2
2018-10-15 10:00:00 8.8 8.7 9 0 7324 10.53 7.99 12.93 59.46 2.7 2
2018-10-15 11:00:00 8.8 8.7 8.9 0 7314 14.77 13.16 15.46 43.43 2.3 1.7
2018-10-15 12:00:00 8.9 8.9 9.1 0 7314 17.28 14.88 19.05 36.28 1.9 1.6
2018-10-15 13:00:00 9.1 9 9.3 0 7314 19.14 17.99 19.99 32.95 2.2 1.4
2018-10-15 14:00:00 9.4 9.3 9.7 0 7314 20.69 20.04 21.59 31.4 2.8 2.3
2018-10-15 15:00:00 9.8 9.7 10.1 0 7304 22.71 21.43 23.55 22.59 -0.1 -1.7